sensor_id;sensor_type;location;lat;lon;timestamp;P1;durP1;ratioP1;P2;durP2;ratioP2
11319;SDS011;5715;48.234;14.320;2024-03-22T00:01:30;12.53;;;5.50;;
11319;SDS011;5715;48.234;14.320;2024-03-22T00:04:17;6.23;;;5.63;;
11319;SDS011;5715;48.234;14.320;2024-03-22T00:07:04;8.87;;;5.97;;
11319;SDS011;5715;48.234;14.320;2024-03-22T00:09:50;6.47;;;5.13;;
11319;SDS011;5715;48.234;14.320;2024-03-22T00:12:37;6.40;;;5.37;;
11319;SDS011;5715;48.234;14.320;2024-03-22T00:15:24;7.93;;;6.20;;
11319;SDS011;5715;48.234;14.320;2024-03-22T00:18:10;7.33;;;6.60;;
11319;SDS011;5715;48.234;14.320;2024-03-22T00:20:57;9.13;;;7.00;;
11319;SDS011;5715;48.234;14.320;2024-03-22T00:23:44;10.97;;;6.70;;
11319;SDS011;5715;48.234;14.320;2024-03-22T00:26:31;7.90;;;5.87;;
11319;SDS011;5715;48.234;14.320;2024-03-22T00:29:18;9.77;;;6.37;;
11319;SDS011;5715;48.234;14.320;2024-03-22T00:32:05;7.10;;;5.80;;
11319;SDS011;5715;48.234;14.320;2024-03-22T00:34:53;8.83;;;7.33;;
11319;SDS011;5715;48.234;14.320;2024-03-22T00:37:40;10.77;;;6.57;;
11319;SDS011;5715;48.234;14.320;2024-03-22T00:40:26;9.83;;;5.83;;
11319;SDS011;5715;48.234;14.320;2024-03-22T00:43:13;8.20;;;6.47;;
11319;SDS011;5715;48.234;14.320;2024-03-22T00:45:59;7.87;;;7.00;;
11319;SDS011;5715;48.234;14.320;2024-03-22T00:48:48;6.30;;;5.57;;
11319;SDS011;5715;48.234;14.320;2024-03-22T00:51:35;7.33;;;5.53;;
11319;SDS011;5715;48.234;14.320;2024-03-22T00:54:21;8.77;;;5.93;;
11319;SDS011;5715;48.234;14.320;2024-03-22T00:57:08;11.20;;;6.23;;
11319;SDS011;5715;48.234;14.320;2024-03-22T00:59:55;8.67;;;5.70;;
11319;SDS011;5715;48.234;14.320;2024-03-22T01:02:41;10.07;;;6.43;;
11319;SDS011;5715;48.234;14.320;2024-03-22T01:05:29;7.03;;;4.83;;
11319;SDS011;5715;48.234;14.320;2024-03-22T01:08:16;7.53;;;5.50;;
11319;SDS011;5715;48.234;14.320;2024-03-22T01:11:02;4.97;;;4.50;;
11319;SDS011;5715;48.234;14.320;2024-03-22T01:13:49;6.07;;;4.67;;
11319;SDS011;5715;48.234;14.320;2024-03-22T01:16:36;5.73;;;5.13;;
11319;SDS011;5715;48.234;14.320;2024-03-22T01:19:22;7.90;;;5.87;;
11319;SDS011;5715;48.234;14.320;2024-03-22T01:22:09;9.50;;;6.07;;
11319;SDS011;5715;48.234;14.320;2024-03-22T01:24:56;7.97;;;5.73;;
11319;SDS011;5715;48.234;14.320;2024-03-22T01:27:42;8.60;;;6.00;;
11319;SDS011;5715;48.234;14.320;2024-03-22T01:30:29;9.37;;;5.90;;
11319;SDS011;5715;48.234;14.320;2024-03-22T01:33:16;7.87;;;6.27;;
11319;SDS011;5715;48.234;14.320;2024-03-22T01:36:02;6.47;;;5.10;;
11319;SDS011;5715;48.234;14.320;2024-03-22T01:38:50;7.80;;;6.33;;
11319;SDS011;5715;48.234;14.320;2024-03-22T01:41:37;9.10;;;5.70;;
11319;SDS011;5715;48.234;14.320;2024-03-22T01:44:27;6.60;;;5.37;;
11319;SDS011;5715;48.234;14.320;2024-03-22T01:47:15;9.27;;;6.60;;
11319;SDS011;5715;48.234;14.320;2024-03-22T01:50:03;5.87;;;5.27;;
11319;SDS011;5715;48.234;14.320;2024-03-22T01:52:52;8.53;;;6.07;;
11319;SDS011;5715;48.234;14.320;2024-03-22T01:55:39;5.20;;;4.13;;
11319;SDS011;5715;48.234;14.320;2024-03-22T01:58:25;8.00;;;6.57;;
11319;SDS011;5715;48.234;14.320;2024-03-22T02:01:12;7.90;;;6.23;;
11319;SDS011;5715;48.234;14.320;2024-03-22T02:03:59;8.70;;;5.87;;
11319;SDS011;5715;48.234;14.320;2024-03-22T02:06:45;9.73;;;6.83;;
11319;SDS011;5715;48.234;14.320;2024-03-22T02:09:32;8.23;;;6.33;;
11319;SDS011;5715;48.234;14.320;2024-03-22T02:12:19;7.10;;;6.40;;
11319;SDS011;5715;48.234;14.320;2024-03-22T02:15:06;5.50;;;5.03;;
11319;SDS011;5715;48.234;14.320;2024-03-22T02:17:54;5.87;;;5.20;;
11319;SDS011;5715;48.234;14.320;2024-03-22T02:20:40;5.70;;;5.20;;
11319;SDS011;5715;48.234;14.320;2024-03-22T02:23:45;5.90;;;4.83;;
11319;SDS011;5715;48.234;14.320;2024-03-22T02:26:32;7.23;;;6.53;;
11319;SDS011;5715;48.234;14.320;2024-03-22T02:29:18;6.27;;;5.53;;
11319;SDS011;5715;48.234;14.320;2024-03-22T02:32:06;7.03;;;6.13;;
11319;SDS011;5715;48.234;14.320;2024-03-22T02:34:53;9.53;;;7.20;;
11319;SDS011;5715;48.234;14.320;2024-03-22T02:37:39;8.33;;;6.80;;
11319;SDS011;5715;48.234;14.320;2024-03-22T02:40:26;6.47;;;5.87;;
11319;SDS011;5715;48.234;14.320;2024-03-22T02:43:12;6.50;;;5.77;;
11319;SDS011;5715;48.234;14.320;2024-03-22T02:45:59;8.97;;;7.20;;
11319;SDS011;5715;48.234;14.320;2024-03-22T02:48:46;8.33;;;7.07;;
11319;SDS011;5715;48.234;14.320;2024-03-22T02:51:33;9.33;;;6.13;;
11319;SDS011;5715;48.234;14.320;2024-03-22T02:54:19;6.50;;;5.30;;
11319;SDS011;5715;48.234;14.320;2024-03-22T02:57:06;8.50;;;6.00;;
11319;SDS011;5715;48.234;14.320;2024-03-22T02:59:52;9.20;;;7.33;;
11319;SDS011;5715;48.234;14.320;2024-03-22T03:02:39;8.70;;;6.67;;
11319;SDS011;5715;48.234;14.320;2024-03-22T03:05:26;8.90;;;6.23;;
11319;SDS011;5715;48.234;14.320;2024-03-22T03:08:12;8.73;;;7.07;;
11319;SDS011;5715;48.234;14.320;2024-03-22T03:10:59;7.30;;;5.90;;
11319;SDS011;5715;48.234;14.320;2024-03-22T03:13:46;5.80;;;5.27;;
11319;SDS011;5715;48.234;14.320;2024-03-22T03:16:32;8.43;;;6.50;;
11319;SDS011;5715;48.234;14.320;2024-03-22T03:19:19;7.63;;;6.83;;
11319;SDS011;5715;48.234;14.320;2024-03-22T03:22:06;9.73;;;6.53;;
11319;SDS011;5715;48.234;14.320;2024-03-22T03:24:52;8.13;;;6.80;;
11319;SDS011;5715;48.234;14.320;2024-03-22T03:27:39;10.50;;;7.27;;
11319;SDS011;5715;48.234;14.320;2024-03-22T03:30:25;9.30;;;5.63;;
11319;SDS011;5715;48.234;14.320;2024-03-22T03:33:12;5.67;;;4.53;;
11319;SDS011;5715;48.234;14.320;2024-03-22T03:35:59;7.67;;;6.63;;
11319;SDS011;5715;48.234;14.320;2024-03-22T03:38:45;11.67;;;8.17;;
11319;SDS011;5715;48.234;14.320;2024-03-22T03:41:32;8.00;;;6.43;;
11319;SDS011;5715;48.234;14.320;2024-03-22T03:44:19;6.80;;;6.10;;
11319;SDS011;5715;48.234;14.320;2024-03-22T03:47:06;5.83;;;5.27;;
11319;SDS011;5715;48.234;14.320;2024-03-22T03:49:52;6.20;;;5.57;;
11319;SDS011;5715;48.234;14.320;2024-03-22T03:52:39;7.07;;;5.13;;
11319;SDS011;5715;48.234;14.320;2024-03-22T03:55:26;6.67;;;6.00;;
11319;SDS011;5715;48.234;14.320;2024-03-22T03:58:12;6.60;;;5.73;;
11319;SDS011;5715;48.234;14.320;2024-03-22T04:00:59;9.83;;;7.43;;
11319;SDS011;5715;48.234;14.320;2024-03-22T04:03:54;7.50;;;6.70;;
11319;SDS011;5715;48.234;14.320;2024-03-22T04:06:41;6.97;;;5.43;;
11319;SDS011;5715;48.234;14.320;2024-03-22T04:09:30;10.13;;;7.03;;
11319;SDS011;5715;48.234;14.320;2024-03-22T04:12:17;10.00;;;7.50;;
11319;SDS011;5715;48.234;14.320;2024-03-22T04:15:04;11.23;;;7.60;;
11319;SDS011;5715;48.234;14.320;2024-03-22T04:17:51;7.47;;;6.60;;
11319;SDS011;5715;48.234;14.320;2024-03-22T04:20:38;10.33;;;7.57;;
11319;SDS011;5715;48.234;14.320;2024-03-22T04:23:25;7.17;;;5.63;;
11319;SDS011;5715;48.234;14.320;2024-03-22T04:26:12;6.60;;;6.10;;
11319;SDS011;5715;48.234;14.320;2024-03-22T04:28:59;6.17;;;5.57;;
11319;SDS011;5715;48.234;14.320;2024-03-22T04:31:46;5.93;;;5.37;;
11319;SDS011;5715;48.234;14.320;2024-03-22T04:34:32;7.43;;;6.33;;
11319;SDS011;5715;48.234;14.320;2024-03-22T04:37:19;7.50;;;6.23;;
11319;SDS011;5715;48.234;14.320;2024-03-22T04:40:06;6.23;;;5.57;;
11319;SDS011;5715;48.234;14.320;2024-03-22T04:42:55;9.80;;;6.07;;
11319;SDS011;5715;48.234;14.320;2024-03-22T04:45:45;12.20;;;7.40;;
11319;SDS011;5715;48.234;14.320;2024-03-22T04:48:33;6.40;;;5.77;;
11319;SDS011;5715;48.234;14.320;2024-03-22T04:51:20;8.03;;;5.87;;
11319;SDS011;5715;48.234;14.320;2024-03-22T04:54:06;11.07;;;7.83;;
11319;SDS011;5715;48.234;14.320;2024-03-22T04:56:53;8.53;;;5.60;;
11319;SDS011;5715;48.234;14.320;2024-03-22T04:59:40;6.53;;;5.67;;
11319;SDS011;5715;48.234;14.320;2024-03-22T05:02:26;7.33;;;6.63;;
11319;SDS011;5715;48.234;14.320;2024-03-22T05:05:13;10.87;;;7.17;;
11319;SDS011;5715;48.234;14.320;2024-03-22T05:08:00;7.53;;;5.57;;
11319;SDS011;5715;48.234;14.320;2024-03-22T05:10:47;8.43;;;6.43;;
11319;SDS011;5715;48.234;14.320;2024-03-22T05:13:34;5.57;;;5.07;;
11319;SDS011;5715;48.234;14.320;2024-03-22T05:16:21;8.37;;;6.40;;
11319;SDS011;5715;48.234;14.320;2024-03-22T05:19:09;6.43;;;5.80;;
11319;SDS011;5715;48.234;14.320;2024-03-22T05:21:56;7.53;;;5.90;;
11319;SDS011;5715;48.234;14.320;2024-03-22T05:24:43;6.10;;;5.63;;
11319;SDS011;5715;48.234;14.320;2024-03-22T05:27:32;8.57;;;7.67;;
11319;SDS011;5715;48.234;14.320;2024-03-22T05:30:20;8.60;;;6.80;;
11319;SDS011;5715;48.234;14.320;2024-03-22T05:33:06;7.60;;;6.90;;
11319;SDS011;5715;48.234;14.320;2024-03-22T05:35:53;7.00;;;5.47;;
11319;SDS011;5715;48.234;14.320;2024-03-22T05:38:40;8.07;;;6.67;;
11319;SDS011;5715;48.234;14.320;2024-03-22T05:41:26;7.30;;;6.60;;
11319;SDS011;5715;48.234;14.320;2024-03-22T05:44:13;7.77;;;6.93;;
11319;SDS011;5715;48.234;14.320;2024-03-22T05:46:59;7.17;;;6.47;;
11319;SDS011;5715;48.234;14.320;2024-03-22T05:49:46;10.60;;;6.27;;
11319;SDS011;5715;48.234;14.320;2024-03-22T05:52:33;6.20;;;5.60;;
11319;SDS011;5715;48.234;14.320;2024-03-22T05:55:20;6.93;;;6.10;;
11319;SDS011;5715;48.234;14.320;2024-03-22T05:58:07;9.73;;;7.17;;
11319;SDS011;5715;48.234;14.320;2024-03-22T06:00:54;9.20;;;6.60;;
11319;SDS011;5715;48.234;14.320;2024-03-22T06:03:41;7.03;;;6.33;;
11319;SDS011;5715;48.234;14.320;2024-03-22T06:06:28;8.97;;;7.23;;
11319;SDS011;5715;48.234;14.320;2024-03-22T06:09:15;7.77;;;6.77;;
11319;SDS011;5715;48.234;14.320;2024-03-22T06:12:09;8.40;;;6.80;;
11319;SDS011;5715;48.234;14.320;2024-03-22T06:14:56;6.60;;;5.93;;
11319;SDS011;5715;48.234;14.320;2024-03-22T06:17:42;10.17;;;7.83;;
11319;SDS011;5715;48.234;14.320;2024-03-22T06:20:32;7.20;;;6.47;;
11319;SDS011;5715;48.234;14.320;2024-03-22T06:23:19;8.33;;;7.50;;
11319;SDS011;5715;48.234;14.320;2024-03-22T06:26:06;13.47;;;7.23;;
11319;SDS011;5715;48.234;14.320;2024-03-22T06:28:52;6.93;;;6.23;;
11319;SDS011;5715;48.234;14.320;2024-03-22T06:31:39;11.17;;;7.13;;
11319;SDS011;5715;48.234;14.320;2024-03-22T06:34:25;8.77;;;7.70;;
11319;SDS011;5715;48.234;14.320;2024-03-22T06:37:12;7.20;;;6.50;;
11319;SDS011;5715;48.234;14.320;2024-03-22T06:39:59;8.30;;;6.17;;
11319;SDS011;5715;48.234;14.320;2024-03-22T06:42:45;8.77;;;6.83;;
11319;SDS011;5715;48.234;14.320;2024-03-22T06:45:32;10.90;;;6.70;;
11319;SDS011;5715;48.234;14.320;2024-03-22T06:48:18;11.33;;;6.70;;
11319;SDS011;5715;48.234;14.320;2024-03-22T06:51:05;12.03;;;8.13;;
11319;SDS011;5715;48.234;14.320;2024-03-22T06:53:51;8.77;;;6.53;;
11319;SDS011;5715;48.234;14.320;2024-03-22T06:56:38;12.43;;;9.03;;
11319;SDS011;5715;48.234;14.320;2024-03-22T06:59:25;7.43;;;6.60;;
11319;SDS011;5715;48.234;14.320;2024-03-22T07:02:12;10.40;;;8.27;;
11319;SDS011;5715;48.234;14.320;2024-03-22T07:05:00;12.17;;;8.43;;
11319;SDS011;5715;48.234;14.320;2024-03-22T07:07:46;11.60;;;8.23;;
11319;SDS011;5715;48.234;14.320;2024-03-22T07:10:33;9.90;;;8.63;;
11319;SDS011;5715;48.234;14.320;2024-03-22T07:13:20;10.63;;;8.17;;
11319;SDS011;5715;48.234;14.320;2024-03-22T07:16:07;11.03;;;8.23;;
11319;SDS011;5715;48.234;14.320;2024-03-22T07:18:53;13.23;;;9.47;;
11319;SDS011;5715;48.234;14.320;2024-03-22T07:21:40;13.33;;;8.43;;
11319;SDS011;5715;48.234;14.320;2024-03-22T07:24:27;8.83;;;7.90;;
11319;SDS011;5715;48.234;14.320;2024-03-22T07:27:13;12.60;;;8.67;;
11319;SDS011;5715;48.234;14.320;2024-03-22T07:30:01;9.27;;;8.30;;
11319;SDS011;5715;48.234;14.320;2024-03-22T07:32:47;10.20;;;8.60;;
11319;SDS011;5715;48.234;14.320;2024-03-22T07:35:34;13.93;;;10.47;;
11319;SDS011;5715;48.234;14.320;2024-03-22T07:38:24;17.93;;;8.80;;
11319;SDS011;5715;48.234;14.320;2024-03-22T07:41:10;10.80;;;9.33;;
11319;SDS011;5715;48.234;14.320;2024-03-22T07:43:58;11.50;;;8.87;;
11319;SDS011;5715;48.234;14.320;2024-03-22T07:46:46;12.37;;;8.90;;
11319;SDS011;5715;48.234;14.320;2024-03-22T07:49:32;10.33;;;7.63;;
11319;SDS011;5715;48.234;14.320;2024-03-22T07:52:19;13.97;;;7.50;;
11319;SDS011;5715;48.234;14.320;2024-03-22T07:55:06;13.80;;;9.40;;
11319;SDS011;5715;48.234;14.320;2024-03-22T07:57:53;17.07;;;8.03;;
11319;SDS011;5715;48.234;14.320;2024-03-22T08:00:40;13.90;;;8.60;;
11319;SDS011;5715;48.234;14.320;2024-03-22T08:03:26;10.63;;;8.23;;
11319;SDS011;5715;48.234;14.320;2024-03-22T08:06:13;10.43;;;8.07;;
11319;SDS011;5715;48.234;14.320;2024-03-22T08:09:00;12.47;;;8.00;;
11319;SDS011;5715;48.234;14.320;2024-03-22T08:11:48;11.30;;;7.23;;
11319;SDS011;5715;48.234;14.320;2024-03-22T08:14:35;10.47;;;7.87;;
11319;SDS011;5715;48.234;14.320;2024-03-22T08:17:22;9.63;;;7.20;;
11319;SDS011;5715;48.234;14.320;2024-03-22T08:20:09;11.97;;;8.27;;
11319;SDS011;5715;48.234;14.320;2024-03-22T08:22:55;16.07;;;8.13;;
11319;SDS011;5715;48.234;14.320;2024-03-22T08:25:42;11.47;;;7.80;;
11319;SDS011;5715;48.234;14.320;2024-03-22T08:28:29;9.87;;;7.23;;
11319;SDS011;5715;48.234;14.320;2024-03-22T08:31:16;11.83;;;8.00;;
11319;SDS011;5715;48.234;14.320;2024-03-22T08:34:03;10.33;;;6.67;;
11319;SDS011;5715;48.234;14.320;2024-03-22T08:36:51;8.67;;;6.63;;
11319;SDS011;5715;48.234;14.320;2024-03-22T08:39:37;14.60;;;7.10;;
11319;SDS011;5715;48.234;14.320;2024-03-22T08:42:24;9.93;;;7.33;;
11319;SDS011;5715;48.234;14.320;2024-03-22T08:45:11;10.73;;;7.13;;
11319;SDS011;5715;48.234;14.320;2024-03-22T08:47:57;12.90;;;7.33;;
11319;SDS011;5715;48.234;14.320;2024-03-22T08:50:44;8.30;;;6.20;;
11319;SDS011;5715;48.234;14.320;2024-03-22T08:53:31;7.37;;;6.43;;
11319;SDS011;5715;48.234;14.320;2024-03-22T08:56:17;8.50;;;7.20;;
11319;SDS011;5715;48.234;14.320;2024-03-22T08:59:04;9.53;;;6.17;;
11319;SDS011;5715;48.234;14.320;2024-03-22T09:01:51;9.47;;;6.90;;
11319;SDS011;5715;48.234;14.320;2024-03-22T09:04:38;13.07;;;7.20;;
11319;SDS011;5715;48.234;14.320;2024-03-22T09:07:25;14.15;;;7.95;;
11319;SDS011;5715;48.234;14.320;2024-03-22T09:10:12;8.93;;;6.17;;
11319;SDS011;5715;48.234;14.320;2024-03-22T09:12:58;11.80;;;6.53;;
11319;SDS011;5715;48.234;14.320;2024-03-22T09:15:45;14.85;;;6.43;;
11319;SDS011;5715;48.234;14.320;2024-03-22T09:18:32;9.60;;;7.10;;
11319;SDS011;5715;48.234;14.320;2024-03-22T09:21:19;12.53;;;6.17;;
11319;SDS011;5715;48.234;14.320;2024-03-22T09:24:05;10.03;;;6.83;;
11319;SDS011;5715;48.234;14.320;2024-03-22T09:26:52;12.90;;;5.37;;
11319;SDS011;5715;48.234;14.320;2024-03-22T09:29:39;8.57;;;5.77;;
11319;SDS011;5715;48.234;14.320;2024-03-22T09:32:25;9.13;;;6.10;;
11319;SDS011;5715;48.234;14.320;2024-03-22T09:35:12;8.63;;;6.47;;
11319;SDS011;5715;48.234;14.320;2024-03-22T09:38:03;10.33;;;6.50;;
11319;SDS011;5715;48.234;14.320;2024-03-22T09:40:50;10.18;;;6.97;;
11319;SDS011;5715;48.234;14.320;2024-03-22T09:43:40;7.55;;;5.28;;
11319;SDS011;5715;48.234;14.320;2024-03-22T09:46:30;14.23;;;6.70;;
11319;SDS011;5715;48.234;14.320;2024-03-22T09:49:18;9.15;;;5.85;;
11319;SDS011;5715;48.234;14.320;2024-03-22T09:52:05;12.85;;;5.35;;
11319;SDS011;5715;48.234;14.320;2024-03-22T09:54:53;7.82;;;5.88;;
11319;SDS011;5715;48.234;14.320;2024-03-22T09:57:41;11.80;;;6.25;;
11319;SDS011;5715;48.234;14.320;2024-03-22T10:00:30;10.82;;;6.43;;
11319;SDS011;5715;48.234;14.320;2024-03-22T10:03:17;9.50;;;5.47;;
11319;SDS011;5715;48.234;14.320;2024-03-22T10:06:04;7.63;;;4.90;;
11319;SDS011;5715;48.234;14.320;2024-03-22T10:08:51;7.28;;;4.97;;
11319;SDS011;5715;48.234;14.320;2024-03-22T10:11:38;5.97;;;3.88;;
11319;SDS011;5715;48.234;14.320;2024-03-22T10:14:25;6.32;;;4.78;;
11319;SDS011;5715;48.234;14.320;2024-03-22T10:17:12;6.88;;;5.25;;
11319;SDS011;5715;48.234;14.320;2024-03-22T10:19:59;5.80;;;4.57;;
11319;SDS011;5715;48.234;14.320;2024-03-22T10:22:50;5.68;;;4.38;;
11319;SDS011;5715;48.234;14.320;2024-03-22T10:25:43;5.50;;;4.10;;
11319;SDS011;5715;48.234;14.320;2024-03-22T10:28:30;3.78;;;3.33;;
11319;SDS011;5715;48.234;14.320;2024-03-22T10:31:17;7.13;;;3.55;;
11319;SDS011;5715;48.234;14.320;2024-03-22T10:34:06;6.13;;;4.00;;
11319;SDS011;5715;48.234;14.320;2024-03-22T10:36:57;5.68;;;3.97;;
11319;SDS011;5715;48.234;14.320;2024-03-22T10:39:52;4.85;;;3.60;;
11319;SDS011;5715;48.234;14.320;2024-03-22T10:42:42;10.15;;;4.70;;
11319;SDS011;5715;48.234;14.320;2024-03-22T10:45:30;6.10;;;4.03;;
11319;SDS011;5715;48.234;14.320;2024-03-22T10:48:19;4.97;;;3.15;;
11319;SDS011;5715;48.234;14.320;2024-03-22T10:51:09;4.32;;;3.38;;
11319;SDS011;5715;48.234;14.320;2024-03-22T10:53:56;5.55;;;3.65;;
11319;SDS011;5715;48.234;14.320;2024-03-22T10:56:44;10.55;;;3.72;;
11319;SDS011;5715;48.234;14.320;2024-03-22T10:59:34;6.40;;;3.95;;
11319;SDS011;5715;48.234;14.320;2024-03-22T11:02:23;5.03;;;3.40;;
11319;SDS011;5715;48.234;14.320;2024-03-22T11:05:17;4.53;;;3.00;;
11319;SDS011;5715;48.234;14.320;2024-03-22T11:08:04;5.43;;;3.65;;
11319;SDS011;5715;48.234;14.320;2024-03-22T11:10:51;5.55;;;3.95;;
11319;SDS011;5715;48.234;14.320;2024-03-22T11:13:39;4.57;;;3.60;;
11319;SDS011;5715;48.234;14.320;2024-03-22T11:16:26;4.00;;;3.33;;
11319;SDS011;5715;48.234;14.320;2024-03-22T11:19:12;4.97;;;3.17;;
11319;SDS011;5715;48.234;14.320;2024-03-22T11:21:59;7.43;;;2.83;;
11319;SDS011;5715;48.234;14.320;2024-03-22T11:24:46;3.75;;;2.83;;
11319;SDS011;5715;48.234;14.320;2024-03-22T11:27:33;4.65;;;3.47;;
11319;SDS011;5715;48.234;14.320;2024-03-22T11:30:19;6.18;;;2.55;;
11319;SDS011;5715;48.234;14.320;2024-03-22T11:33:06;2.30;;;2.10;;
11319;SDS011;5715;48.234;14.320;2024-03-22T11:35:53;3.72;;;2.80;;
11319;SDS011;5715;48.234;14.320;2024-03-22T11:38:40;4.22;;;2.90;;
11319;SDS011;5715;48.234;14.320;2024-03-22T11:41:28;3.72;;;2.47;;
11319;SDS011;5715;48.234;14.320;2024-03-22T11:44:17;4.38;;;2.88;;
11319;SDS011;5715;48.234;14.320;2024-03-22T11:47:04;4.35;;;2.45;;
11319;SDS011;5715;48.234;14.320;2024-03-22T11:49:51;3.40;;;2.40;;
11319;SDS011;5715;48.234;14.320;2024-03-22T11:52:42;4.95;;;3.25;;
11319;SDS011;5715;48.234;14.320;2024-03-22T11:55:32;5.80;;;3.47;;
11319;SDS011;5715;48.234;14.320;2024-03-22T11:58:22;3.38;;;2.53;;
11319;SDS011;5715;48.234;14.320;2024-03-22T12:01:12;5.40;;;2.80;;
11319;SDS011;5715;48.234;14.320;2024-03-22T12:04:01;4.65;;;3.00;;
11319;SDS011;5715;48.234;14.320;2024-03-22T12:06:48;6.28;;;3.17;;
11319;SDS011;5715;48.234;14.320;2024-03-22T12:09:35;5.75;;;3.63;;
11319;SDS011;5715;48.234;14.320;2024-03-22T12:12:21;5.85;;;3.90;;
11319;SDS011;5715;48.234;14.320;2024-03-22T12:15:09;5.72;;;3.22;;
11319;SDS011;5715;48.234;14.320;2024-03-22T12:17:55;5.32;;;3.85;;
11319;SDS011;5715;48.234;14.320;2024-03-22T12:20:42;5.70;;;3.45;;
11319;SDS011;5715;48.234;14.320;2024-03-22T12:23:28;4.82;;;3.47;;
11319;SDS011;5715;48.234;14.320;2024-03-22T12:26:15;4.93;;;3.40;;
11319;SDS011;5715;48.234;14.320;2024-03-22T12:29:02;6.43;;;3.88;;
11319;SDS011;5715;48.234;14.320;2024-03-22T12:31:50;10.95;;;3.60;;
11319;SDS011;5715;48.234;14.320;2024-03-22T12:34:37;9.30;;;4.55;;
11319;SDS011;5715;48.234;14.320;2024-03-22T12:37:23;7.55;;;4.30;;
11319;SDS011;5715;48.234;14.320;2024-03-22T12:40:10;8.57;;;3.88;;
11319;SDS011;5715;48.234;14.320;2024-03-22T12:42:59;3.30;;;2.60;;
11319;SDS011;5715;48.234;14.320;2024-03-22T12:45:46;6.25;;;3.65;;
11319;SDS011;5715;48.234;14.320;2024-03-22T12:48:33;3.97;;;3.28;;
11319;SDS011;5715;48.234;14.320;2024-03-22T12:51:20;5.38;;;3.15;;
11319;SDS011;5715;48.234;14.320;2024-03-22T12:54:07;4.50;;;3.55;;
11319;SDS011;5715;48.234;14.320;2024-03-22T12:56:54;3.88;;;2.72;;
11319;SDS011;5715;48.234;14.320;2024-03-22T12:59:41;4.55;;;3.13;;
11319;SDS011;5715;48.234;14.320;2024-03-22T13:02:28;5.80;;;3.88;;
11319;SDS011;5715;48.234;14.320;2024-03-22T13:05:14;5.13;;;3.35;;
11319;SDS011;5715;48.234;14.320;2024-03-22T13:08:01;6.93;;;3.97;;
11319;SDS011;5715;48.234;14.320;2024-03-22T13:10:48;8.45;;;3.10;;
11319;SDS011;5715;48.234;14.320;2024-03-22T13:13:37;4.65;;;2.97;;
11319;SDS011;5715;48.234;14.320;2024-03-22T13:16:24;3.83;;;2.92;;
11319;SDS011;5715;48.234;14.320;2024-03-22T13:19:11;7.78;;;3.83;;
11319;SDS011;5715;48.234;14.320;2024-03-22T13:21:59;4.97;;;3.47;;
11319;SDS011;5715;48.234;14.320;2024-03-22T13:24:46;4.85;;;3.72;;
11319;SDS011;5715;48.234;14.320;2024-03-22T13:27:33;11.48;;;3.60;;
11319;SDS011;5715;48.234;14.320;2024-03-22T13:30:20;4.95;;;3.50;;
11319;SDS011;5715;48.234;14.320;2024-03-22T13:33:07;4.80;;;3.33;;
11319;SDS011;5715;48.234;14.320;2024-03-22T13:35:54;4.78;;;3.83;;
11319;SDS011;5715;48.234;14.320;2024-03-22T13:38:40;3.45;;;3.08;;
11319;SDS011;5715;48.234;14.320;2024-03-22T13:41:27;4.43;;;3.50;;
11319;SDS011;5715;48.234;14.320;2024-03-22T13:44:14;5.65;;;3.83;;
11319;SDS011;5715;48.234;14.320;2024-03-22T13:47:01;4.45;;;3.00;;
11319;SDS011;5715;48.234;14.320;2024-03-22T13:49:53;6.25;;;3.40;;
11319;SDS011;5715;48.234;14.320;2024-03-22T13:52:40;5.15;;;4.00;;
11319;SDS011;5715;48.234;14.320;2024-03-22T13:55:27;3.90;;;3.15;;
11319;SDS011;5715;48.234;14.320;2024-03-22T13:58:13;5.97;;;3.67;;
11319;SDS011;5715;48.234;14.320;2024-03-22T14:01:00;5.38;;;3.33;;
11319;SDS011;5715;48.234;14.320;2024-03-22T14:03:48;7.50;;;3.75;;
11319;SDS011;5715;48.234;14.320;2024-03-22T14:06:35;3.78;;;3.00;;
11319;SDS011;5715;48.234;14.320;2024-03-22T14:09:23;7.47;;;3.33;;
11319;SDS011;5715;48.234;14.320;2024-03-22T14:12:11;4.95;;;3.30;;
11319;SDS011;5715;48.234;14.320;2024-03-22T14:14:58;4.50;;;3.28;;
11319;SDS011;5715;48.234;14.320;2024-03-22T14:17:45;5.07;;;3.60;;
11319;SDS011;5715;48.234;14.320;2024-03-22T14:20:32;6.65;;;3.70;;
11319;SDS011;5715;48.234;14.320;2024-03-22T14:23:18;4.43;;;3.72;;
11319;SDS011;5715;48.234;14.320;2024-03-22T14:26:05;6.43;;;3.50;;
11319;SDS011;5715;48.234;14.320;2024-03-22T14:28:51;6.63;;;3.70;;
11319;SDS011;5715;48.234;14.320;2024-03-22T14:31:39;5.03;;;3.47;;
11319;SDS011;5715;48.234;14.320;2024-03-22T14:34:28;5.20;;;3.85;;
11319;SDS011;5715;48.234;14.320;2024-03-22T14:37:14;5.07;;;3.45;;
11319;SDS011;5715;48.234;14.320;2024-03-22T14:40:01;5.13;;;3.33;;
11319;SDS011;5715;48.234;14.320;2024-03-22T14:42:51;9.68;;;4.00;;
11319;SDS011;5715;48.234;14.320;2024-03-22T14:45:37;5.32;;;3.22;;
11319;SDS011;5715;48.234;14.320;2024-03-22T14:48:24;7.28;;;4.18;;
11319;SDS011;5715;48.234;14.320;2024-03-22T14:51:11;5.32;;;3.75;;
11319;SDS011;5715;48.234;14.320;2024-03-22T14:53:57;5.68;;;3.72;;
11319;SDS011;5715;48.234;14.320;2024-03-22T14:56:44;5.07;;;3.40;;
11319;SDS011;5715;48.234;14.320;2024-03-22T14:59:31;5.20;;;3.53;;
11319;SDS011;5715;48.234;14.320;2024-03-22T15:02:18;5.47;;;3.55;;
11319;SDS011;5715;48.234;14.320;2024-03-22T15:05:05;7.05;;;3.88;;
11319;SDS011;5715;48.234;14.320;2024-03-22T15:07:52;5.40;;;3.75;;
11319;SDS011;5715;48.234;14.320;2024-03-22T15:10:38;6.90;;;3.72;;
11319;SDS011;5715;48.234;14.320;2024-03-22T15:13:25;6.25;;;4.45;;
11319;SDS011;5715;48.234;14.320;2024-03-22T15:16:12;6.47;;;4.13;;
11319;SDS011;5715;48.234;14.320;2024-03-22T15:18:59;5.15;;;3.55;;
11319;SDS011;5715;48.234;14.320;2024-03-22T15:21:45;6.60;;;4.13;;
11319;SDS011;5715;48.234;14.320;2024-03-22T15:24:32;7.97;;;4.28;;
11319;SDS011;5715;48.234;14.320;2024-03-22T15:27:18;4.70;;;3.40;;
11319;SDS011;5715;48.234;14.320;2024-03-22T15:30:06;4.03;;;3.60;;
11319;SDS011;5715;48.234;14.320;2024-03-22T15:32:53;8.52;;;4.13;;
11319;SDS011;5715;48.234;14.320;2024-03-22T15:35:41;9.25;;;3.42;;
11319;SDS011;5715;48.234;14.320;2024-03-22T15:38:33;5.68;;;3.67;;
11319;SDS011;5715;48.234;14.320;2024-03-22T15:41:20;7.60;;;3.28;;
11319;SDS011;5715;48.234;14.320;2024-03-22T15:44:06;8.68;;;4.10;;
11319;SDS011;5715;48.234;14.320;2024-03-22T15:46:54;6.40;;;3.67;;
11319;SDS011;5715;48.234;14.320;2024-03-22T15:49:45;11.63;;;4.28;;
11319;SDS011;5715;48.234;14.320;2024-03-22T15:52:32;5.70;;;4.05;;
11319;SDS011;5715;48.234;14.320;2024-03-22T15:55:19;5.00;;;4.22;;
11319;SDS011;5715;48.234;14.320;2024-03-22T15:58:06;6.65;;;4.28;;
11319;SDS011;5715;48.234;14.320;2024-03-22T16:00:53;4.78;;;3.00;;
11319;SDS011;5715;48.234;14.320;2024-03-22T16:03:39;9.85;;;3.60;;
11319;SDS011;5715;48.234;14.320;2024-03-22T16:06:26;3.85;;;3.22;;
11319;SDS011;5715;48.234;14.320;2024-03-22T16:09:12;3.92;;;3.20;;
11319;SDS011;5715;48.234;14.320;2024-03-22T16:11:59;7.63;;;4.72;;
11319;SDS011;5715;48.234;14.320;2024-03-22T16:14:46;5.50;;;2.88;;
11319;SDS011;5715;48.234;14.320;2024-03-22T16:17:32;8.90;;;4.80;;
11319;SDS011;5715;48.234;14.320;2024-03-22T16:20:20;5.60;;;4.20;;
11319;SDS011;5715;48.234;14.320;2024-03-22T16:23:06;7.00;;;3.72;;
11319;SDS011;5715;48.234;14.320;2024-03-22T16:25:53;4.35;;;3.22;;
11319;SDS011;5715;48.234;14.320;2024-03-22T16:28:40;5.25;;;3.97;;
11319;SDS011;5715;48.234;14.320;2024-03-22T16:31:26;5.90;;;3.83;;
11319;SDS011;5715;48.234;14.320;2024-03-22T16:34:13;5.90;;;3.88;;
11319;SDS011;5715;48.234;14.320;2024-03-22T16:37:00;4.45;;;3.53;;
11319;SDS011;5715;48.234;14.320;2024-03-22T16:39:47;5.43;;;3.10;;
11319;SDS011;5715;48.234;14.320;2024-03-22T16:42:42;4.78;;;3.65;;
11319;SDS011;5715;48.234;14.320;2024-03-22T16:45:33;4.30;;;3.72;;